Time;durP1;ratioP1;P1;durP2;ratioP2;P2;SDS_P1;SDS_P2;PMS_P1;PMS_P2;Temp;Humidity;BMP_temperature;BMP_pressure;BME280_temperature;BME280_humidity;BME280_pressure;Samples;Min_cycle;Max_cycle;Signal;HPM_P1;HPM_P2
2023/07/20 00:00:18;;;;;;;;;;;;;;;26.00;63.86;96877.23;588980;241;63908;-64
2023/07/20 00:02:46;;;;;;;;;;;;;;;25.99;65.12;96868.36;588912;241;66397;-65
2023/07/20 00:05:13;;;;;;;;;;;;;;;25.99;64.51;96851.42;588935;241;66675;-62
2023/07/20 00:07:41;;;;;;;;;;;;;;;25.99;64.70;96833.36;588901;241;62952;-62
2023/07/20 00:10:09;;;;;;;;;;;;;;;25.99;64.52;96813.72;588902;241;66686;-62
2023/07/20 00:12:36;;;;;;;;;;;;;;;25.99;64.69;96774.12;588936;241;68711;-62
2023/07/20 00:15:04;;;;;;;;;;;;;;;25.98;64.38;96737.55;588917;241;65062;-62
2023/07/20 00:17:31;;;;;;;;;;;;;;;25.98;63.88;96669.44;588909;238;68988;-61
2023/07/20 00:19:59;;;;;;;;;;;;;;;25.98;65.04;96655.98;588865;241;66499;-62
2023/07/20 00:22:26;;;;;;;;;;;;;;;26.00;65.43;96677.98;587197;239;62919;-61
2023/07/20 00:24:54;;;;;;;;;;;;;;;26.00;66.00;96669.91;584962;242;68622;-61
2023/07/20 00:27:21;;;;;;;;;;;;;;;25.99;65.46;96657.55;584978;242;68524;-60
2023/07/20 00:29:48;;;;;;;;;;;;;;;25.98;64.05;96650.59;584938;242;64852;-60
2023/07/20 00:32:16;;;;;;;;;;;;;;;25.98;63.71;96629.05;584924;242;68883;-60
2023/07/20 00:34:44;;;;;;;;;;;;;;;25.98;63.80;96612.91;584955;242;66634;-60
2023/07/20 00:37:12;;;;;;;;;;;;;;;25.98;63.58;96604.83;584984;242;63817;-60
2023/07/20 00:39:39;;;;;;;;;;;;;;;25.98;64.12;96602.92;584992;239;68972;-61
2023/07/20 00:42:07;;;;;;;;;;;;;;;25.98;65.02;96599.44;584933;242;66702;-61
2023/07/20 00:44:34;;;;;;;;;;;;;;;25.99;65.31;96595.63;584981;239;65904;-60
2023/07/20 00:47:02;;;;;;;;;;;;;;;25.97;64.25;96585.16;584979;242;68651;-61
2023/07/20 00:49:30;;;;;;;;;;;;;;;25.99;65.56;96590.24;584971;242;67153;-61
2023/07/20 00:51:58;;;;;;;;;;;;;;;25.99;64.98;96566.02;585009;242;64945;-61
2023/07/20 00:54:26;;;;;;;;;;;;;;;25.98;64.47;96556.36;584979;242;68630;-60
2023/07/20 00:56:54;;;;;;;;;;;;;;;25.99;65.92;96552.55;584931;242;68900;-61
2023/07/20 00:59:22;;;;;;;;;;;;;;;25.99;65.60;96553.34;584993;242;62754;-61
2023/07/20 01:01:50;;;;;;;;;;;;;;;25.98;65.42;96527.53;584963;242;68894;-60
2023/07/20 01:04:17;;;;;;;;;;;;;;;25.98;65.42;96521.36;584990;242;68624;-61
2023/07/20 01:06:56;;;;;;;;;;;;;;;25.97;64.93;96500.91;584951;240;63206;-61
2023/07/20 01:09:25;;;;;;;;;;;;;;;25.98;67.02;96499.82;584734;241;67400;-61
2023/07/20 01:11:56;;;;;;;;;;;;;;;25.99;66.35;96487.94;584945;239;66657;-61
2023/07/20 01:14:25;;;;;;;;;;;;;;;25.97;66.14;96482.06;584837;241;62877;-61
2023/07/20 01:16:52;;;;;;;;;;;;;;;25.97;66.91;96472.08;584950;242;68591;-61
2023/07/20 01:19:20;;;;;;;;;;;;;;;25.97;65.77;96474.78;584980;242;68505;-61
2023/07/20 01:21:49;;;;;;;;;;;;;;;25.96;66.12;96467.03;584908;239;66055;-63
2023/07/20 01:24:19;;;;;;;;;;;;;;;25.97;67.15;96465.91;584978;242;66363;-63
2023/07/20 01:26:48;;;;;;;;;;;;;;;25.95;64.56;96468.94;581773;240;66603;-63
2023/07/20 01:29:20;;;;;;;;;;;;;;;25.97;67.06;96476.68;582234;241;64920;-63
2023/07/20 01:31:50;;;;;;;;;;;;;;;25.95;64.65;96457.38;582430;240;69181;-63
2023/07/20 01:34:19;;;;;;;;;;;;;;;25.95;65.06;96458.17;582420;242;66477;-63
2023/07/20 01:36:47;;;;;;;;;;;;;;;25.95;64.69;96449.30;582456;240;65105;-63
2023/07/20 01:39:14;;;;;;;;;;;;;;;25.93;64.37;96452.30;582406;242;68783;-64
2023/07/20 01:41:42;;;;;;;;;;;;;;;25.93;64.14;96462.28;582455;240;66360;-64
2023/07/20 01:44:10;;;;;;;;;;;;;;;25.94;64.79;96458.47;582637;241;62997;-63
2023/07/20 01:46:38;;;;;;;;;;;;;;;25.93;65.06;96457.69;582479;241;69283;-64
2023/07/20 01:49:05;;;;;;;;;;;;;;;25.93;64.17;96462.28;582619;239;68662;-64
2023/07/20 01:51:33;;;;;;;;;;;;;;;25.94;66.78;96472.72;582552;241;64879;-64
2023/07/20 01:54:00;;;;;;;;;;;;;;;25.93;66.05;96463.06;582485;241;68705;-64
2023/07/20 01:56:28;;;;;;;;;;;;;;;25.91;65.21;96468.76;582390;241;68726;-64
2023/07/20 01:58:55;;;;;;;;;;;;;;;25.93;67.29;96473.05;582399;242;65082;-63
2023/07/20 02:01:23;;;;;;;;;;;;;;;25.93;65.81;96468.45;582565;240;68853;-64
2023/07/20 02:03:51;;;;;;;;;;;;;;;25.93;65.49;96467.67;582421;242;66913;-63
2023/07/20 02:06:18;;;;;;;;;;;;;;;25.93;65.92;96465.77;582422;242;62600;-64
2023/07/20 02:08:46;;;;;;;;;;;;;;;25.93;65.37;96473.84;582410;242;65911;-63
2023/07/20 02:11:13;;;;;;;;;;;;;;;25.93;65.42;96467.67;582579;239;68471;-64
2023/07/20 02:13:41;;;;;;;;;;;;;;;25.93;65.92;96478.44;582411;241;62910;-64
2023/07/20 02:16:08;;;;;;;;;;;;;;;25.91;66.13;96484.91;582399;242;66120;-63
2023/07/20 02:18:38;;;;;;;;;;;;;;;25.93;66.90;96483.82;582967;239;49517;-64
2023/07/20 02:21:05;;;;;;;;;;;;;;;25.91;65.88;96482.22;582680;241;64982;-64
2023/07/20 02:23:33;;;;;;;;;;;;;;;25.91;66.05;96476.05;587170;240;68542;-64
2023/07/20 02:26:01;;;;;;;;;;;;;;;25.91;66.80;96487.60;588762;239;66366;-61
2023/07/20 02:28:28;;;;;;;;;;;;;;;25.92;66.19;96496.50;588729;238;65618;-61
2023/07/20 02:30:56;;;;;;;;;;;;;;;25.92;67.27;96496.50;588731;238;66428;-61
2023/07/20 02:33:24;;;;;;;;;;;;;;;25.91;66.21;96502.97;587590;239;68662;-64
2023/07/20 02:35:51;;;;;;;;;;;;;;;25.91;66.37;96497.58;579829;241;65045;-64
2023/07/20 02:38:19;;;;;;;;;;;;;;;25.91;66.60;96498.38;582011;242;69839;-64
2023/07/20 02:40:46;;;;;;;;;;;;;;;25.90;65.58;96491.41;583482;242;66231;-64
2023/07/20 02:43:14;;;;;;;;;;;;;;;25.90;65.84;96486.03;584642;242;62961;-64
2023/07/20 02:45:42;;;;;;;;;;;;;;;25.90;65.92;96488.72;584648;242;68794;-64
2023/07/20 02:48:10;;;;;;;;;;;;;;;25.90;66.28;96490.62;584674;242;66626;-64
2023/07/20 02:50:37;;;;;;;;;;;;;;;25.90;66.40;96485.24;584648;242;63036;-64
2023/07/20 02:53:05;;;;;;;;;;;;;;;25.89;66.28;96487.14;584667;242;66518;-64
2023/07/20 02:55:32;;;;;;;;;;;;;;;25.89;66.16;96492.53;584644;242;66667;-64
2023/07/20 02:58:00;;;;;;;;;;;;;;;25.89;66.53;96481.77;584646;242;65247;-64
2023/07/20 03:00:28;;;;;;;;;;;;;;;25.89;66.86;96481.77;584622;242;68745;-64
2023/07/20 03:02:55;;;;;;;;;;;;;;;25.91;68.05;96476.05;584675;242;68514;-64
2023/07/20 03:05:28;;;;;;;;;;;;;;;25.89;66.50;96479.07;584609;242;62960;-65
2023/07/20 03:07:52;;;;;;;;;;;;;;;25.88;66.40;96485.55;584449;242;68901;-64
2023/07/20 03:10:20;;;;;;;;;;;;;;;25.87;65.52;96477.80;584636;242;69071;-64
2023/07/20 03:12:48;;;;;;;;;;;;;;;25.87;66.23;96483.97;584640;242;62777;-64
2023/07/20 03:15:16;;;;;;;;;;;;;;;25.87;66.67;96483.97;584693;242;67423;-64
2023/07/20 03:17:43;;;;;;;;;;;;;;;25.86;65.64;96485.09;584640;242;68957;-64
2023/07/20 03:20:12;;;;;;;;;;;;;;;25.85;65.65;96483.48;584622;242;65019;-64
2023/07/20 03:22:41;;;;;;;;;;;;;;;25.87;65.75;96483.97;583358;242;68940;-64
2023/07/20 03:25:08;;;;;;;;;;;;;;;25.84;65.03;96471.14;582220;243;68918;-64
2023/07/20 03:27:36;;;;;;;;;;;;;;;25.85;65.38;96478.10;582330;243;65200;-64
2023/07/20 03:30:06;;;;;;;;;;;;;;;25.84;64.83;96481.91;582285;243;66623;-65
2023/07/20 03:32:33;;;;;;;;;;;;;;;25.85;66.25;96488.88;582214;243;68705;-63
2023/07/20 03:35:02;;;;;;;;;;;;;;;25.83;64.39;96488.38;582283;243;65040;-64
2023/07/20 03:37:30;;;;;;;;;;;;;;;25.84;64.86;96495.37;582289;243;66400;-64
2023/07/20 03:39:57;;;;;;;;;;;;;;;25.84;65.01;96499.97;582297;243;68755;-64
2023/07/20 03:42:25;;;;;;;;;;;;;;;25.84;64.61;96495.37;582297;243;64953;-64
2023/07/20 03:44:53;;;;;;;;;;;;;;;25.83;64.04;96499.16;582254;243;68970;-63
2023/07/20 03:47:21;;;;;;;;;;;;;;;25.83;63.83;96501.84;579219;243;71286;-64
2023/07/20 03:49:48;;;;;;;;;;;;;;;25.83;64.03;96512.61;582253;243;65090;-63
2023/07/20 03:52:16;;;;;;;;;;;;;;;25.83;64.06;96507.23;582304;243;68904;-64
2023/07/20 03:54:44;;;;;;;;;;;;;;;25.84;63.79;96508.05;582298;243;67263;-64
2023/07/20 03:57:11;;;;;;;;;;;;;;;25.82;64.60;96508.31;582280;243;62738;-64
2023/07/20 03:59:39;;;;;;;;;;;;;;;25.83;64.35;96511.80;582253;243;66635;-64
2023/07/20 04:02:07;;;;;;;;;;;;;;;25.83;64.86;96519.87;582265;243;68756;-64
2023/07/20 04:04:35;;;;;;;;;;;;;;;25.82;63.19;96524.47;582284;243;65071;-64
2023/07/20 04:07:02;;;;;;;;;;;;;;;25.82;63.99;96516.39;582366;243;66616;-64
2023/07/20 04:09:30;;;;;;;;;;;;;;;25.82;64.48;96526.37;582292;243;69167;-63
2023/07/20 04:11:57;;;;;;;;;;;;;;;25.81;63.52;96530.15;582274;243;65119;-64
2023/07/20 04:14:25;;;;;;;;;;;;;;;25.81;63.72;96533.66;582276;243;68677;-63
2023/07/20 04:16:52;;;;;;;;;;;;;;;25.80;63.85;96529.36;582300;243;66677;-61
2023/07/20 04:19:20;;;;;;;;;;;;;;;25.79;64.06;96533.17;582329;243;63805;-61
2023/07/20 04:21:48;;;;;;;;;;;;;;;25.79;64.76;96530.48;582264;242;66458;-61
2023/07/20 04:24:16;;;;;;;;;;;;;;;25.79;64.24;96537.77;582286;243;68738;-61
2023/07/20 04:26:43;;;;;;;;;;;;;;;25.77;63.84;96535.38;582255;243;62500;-61
2023/07/20 04:29:11;;;;;;;;;;;;;;;25.78;64.73;96528.91;582303;243;66713;-61
2023/07/20 04:31:40;;;;;;;;;;;;;;;25.77;64.33;96534.59;582391;243;47089;-61
2023/07/20 04:34:08;;;;;;;;;;;;;;;25.77;64.22;96529.20;582307;243;65265;-61
2023/07/20 04:36:36;;;;;;;;;;;;;;;25.76;64.00;96528.42;582319;243;66093;-61
2023/07/20 04:39:05;;;;;;;;;;;;;;;25.76;63.82;96522.25;582245;243;69337;-61
2023/07/20 04:41:35;;;;;;;;;;;;;;;25.76;65.20;96520.34;582095;242;45492;-61
2023/07/20 04:44:02;;;;;;;;;;;;;;;25.76;64.26;96528.42;582288;243;66306;-61
2023/07/20 04:46:31;;;;;;;;;;;;;;;25.75;64.27;96526.81;582345;243;69230;-61
2023/07/20 04:49:01;;;;;;;;;;;;;;;25.75;65.13;96524.13;582333;242;45024;-61
2023/07/20 04:51:31;;;;;;;;;;;;;;;25.74;64.08;96516.38;582314;243;69326;-61
2023/07/20 04:53:59;;;;;;;;;;;;;;;25.74;64.75;96517.16;582265;243;66051;-61
2023/07/20 04:56:28;;;;;;;;;;;;;;;25.74;64.68;96514.48;582350;243;42483;-61
2023/07/20 04:58:57;;;;;;;;;;;;;;;25.74;64.24;96503.71;582321;243;69156;-61
2023/07/20 05:01:26;;;;;;;;;;;;;;;25.74;64.40;96503.71;582282;243;66683;-61
2023/07/20 05:03:54;;;;;;;;;;;;;;;25.73;63.96;96499.45;582271;243;65044;-61
2023/07/20 05:06:24;;;;;;;;;;;;;;;25.74;64.35;96503.71;582316;242;48744;-61
2023/07/20 05:08:51;;;;;;;;;;;;;;;25.74;64.15;96497.54;582296;243;66507;-61
2023/07/20 05:11:19;;;;;;;;;;;;;;;25.73;63.96;96504.83;582330;243;65732;-61
2023/07/20 05:13:47;;;;;;;;;;;;;;;25.74;64.33;96497.54;582300;243;66747;-61
2023/07/20 05:16:15;;;;;;;;;;;;;;;25.72;64.17;96495.15;582294;243;68635;-61
2023/07/20 05:18:42;;;;;;;;;;;;;;;25.74;65.07;96494.85;582270;243;65036;-61
2023/07/20 05:21:10;;;;;;;;;;;;;;;25.73;64.13;96499.45;582302;243;69314;-61
2023/07/20 05:23:37;;;;;;;;;;;;;;;25.73;64.82;96487.86;578731;242;66393;-61
2023/07/20 05:26:05;;;;;;;;;;;;;;;25.72;64.37;96492.45;578389;245;65148;-61
2023/07/20 05:28:36;;;;;;;;;;;;;;;25.72;65.22;96489.77;575042;241;48649;-61
2023/07/20 05:31:03;;;;;;;;;;;;;;;25.73;64.33;96491.38;575101;246;68855;-61
2023/07/20 05:33:31;;;;;;;;;;;;;;;25.73;64.43;96487.86;575063;245;64898;-61
2023/07/20 05:35:58;;;;;;;;;;;;;;;25.72;63.66;96481.70;575144;246;68956;-61
2023/07/20 05:38:26;;;;;;;;;;;;;;;25.72;64.33;96483.59;575012;245;68683;-61
2023/07/20 05:40:55;;;;;;;;;;;;;;;25.71;64.72;96480.12;575983;244;65074;-61
2023/07/20 05:43:22;;;;;;;;;;;;;;;25.71;64.50;96474.73;576547;243;66710;-61
2023/07/20 05:45:50;;;;;;;;;;;;;;;25.72;65.44;96465.55;575973;244;68448;-61
2023/07/20 05:48:17;;;;;;;;;;;;;;;25.72;66.32;96465.55;576104;244;64969;-61
2023/07/20 05:50:45;;;;;;;;;;;;;;;25.72;66.18;96462.06;576123;242;66782;-61
2023/07/20 05:53:12;;;;;;;;;;;;;;;25.73;66.00;96466.33;575930;246;66921;-61
2023/07/20 05:55:40;;;;;;;;;;;;;;;25.72;63.94;96462.06;575854;246;64840;-61
2023/07/20 05:58:08;;;;;;;;;;;;;;;25.72;65.79;96462.86;575830;245;66726;-60
2023/07/20 06:00:35;;;;;;;;;;;;;;;25.71;64.35;96461.28;575951;246;66602;-60
2023/07/20 06:03:03;;;;;;;;;;;;;;;25.71;64.97;96460.50;575566;244;62947;-60
2023/07/20 06:05:30;;;;;;;;;;;;;;;25.70;65.09;96459.71;576003;244;68876;-62
2023/07/20 06:08:00;;;;;;;;;;;;;;;25.69;64.13;96458.89;576250;245;68438;-61
2023/07/20 06:10:27;;;;;;;;;;;;;;;25.69;64.18;96466.18;575959;246;62338;-61
2023/07/20 06:12:56;;;;;;;;;;;;;;;25.68;65.19;96454.63;575957;246;66158;-60
2023/07/20 06:15:27;;;;;;;;;;;;;;;25.69;63.91;96452.72;576066;246;68482;-60
2023/07/20 06:17:56;;;;;;;;;;;;;;;25.69;64.33;96441.95;575982;246;65189;-62
2023/07/20 06:20:24;;;;;;;;;;;;;;;25.69;65.23;96441.95;576014;246;66800;-61
2023/07/20 06:22:51;;;;;;;;;;;;;;;25.70;66.09;96438.18;575950;245;68472;-61
2023/07/20 06:25:19;;;;;;;;;;;;;;;25.69;65.58;96439.27;575804;245;62940;-60
2023/07/20 06:27:46;;;;;;;;;;;;;;;25.69;66.69;96436.58;575239;245;68651;-61
2023/07/20 06:30:14;;;;;;;;;;;;;;;25.70;66.59;96435.48;576029;244;68503;-61
2023/07/20 06:32:42;;;;;;;;;;;;;;;25.71;67.17;96436.27;575790;246;65110;-62
2023/07/20 06:35:09;;;;;;;;;;;;;;;25.70;66.24;96435.48;575964;244;68864;-60
2023/07/20 06:37:37;;;;;;;;;;;;;;;25.72;61.80;96435.94;576134;244;68762;-61
2023/07/20 06:40:05;;;;;;;;;;;;;;;25.77;67.40;96437.70;575794;246;62871;-60
2023/07/20 06:42:32;;;;;;;;;;;;;;;25.75;68.16;96429.14;575957;244;68961;-61
2023/07/20 06:45:00;;;;;;;;;;;;;;;25.73;66.15;96432.16;575883;243;68727;-65
2023/07/20 06:47:27;;;;;;;;;;;;;;;25.76;62.59;96430.74;575843;245;65016;-64
2023/07/20 06:49:55;;;;;;;;;;;;;;;25.78;61.68;96431.20;575871;246;68915;-65
2023/07/20 06:52:22;;;;;;;;;;;;;;;25.81;65.42;96434.06;575807;246;66362;-65
2023/07/20 06:54:51;;;;;;;;;;;;;;;25.82;62.60;96445.62;575890;244;65229;-63
2023/07/20 06:57:18;;;;;;;;;;;;;;;25.82;62.42;96446.41;575882;245;66708;-63
2023/07/20 06:59:46;;;;;;;;;;;;;;;25.84;62.32;96443.44;575968;244;68410;-62
2023/07/20 07:02:14;;;;;;;;;;;;;;;25.85;62.38;96445.80;575829;245;64898;-63
2023/07/20 07:04:42;;;;;;;;;;;;;;;25.85;62.54;96448.49;575792;244;66506;-63
2023/07/20 07:07:10;;;;;;;;;;;;;;;25.87;62.70;96454.36;575741;246;69199;-63
2023/07/20 07:09:37;;;;;;;;;;;;;;;25.87;62.60;96462.44;575831;246;63029;-62
2023/07/20 07:12:05;;;;;;;;;;;;;;;25.88;62.37;96455.14;575885;244;68900;-63
2023/07/20 07:14:32;;;;;;;;;;;;;;;25.88;60.91;96461.31;575868;245;68534;-62
2023/07/20 07:17:00;;;;;;;;;;;;;;;25.89;61.33;96460.23;576304;244;65117;-64
2023/07/20 07:19:28;;;;;;;;;;;;;;;25.90;60.43;96461.02;575831;245;68852;-63
2023/07/20 07:21:56;;;;;;;;;;;;;;;25.91;60.67;96473.35;577376;242;68905;-64
2023/07/20 07:24:24;;;;;;;;;;;;;;;25.93;60.45;96470.36;582239;241;65244;-63
2023/07/20 07:26:51;;;;;;;;;;;;;;;25.95;60.11;96474.32;585951;240;68570;-63
2023/07/20 07:29:19;;;;;;;;;;;;;;;25.97;60.34;96477.47;585467;240;66617;-64
2023/07/20 07:31:46;;;;;;;;;;;;;;;25.98;59.86;96471.00;585474;240;63903;-63
2023/07/20 07:34:14;;;;;;;;;;;;;;;25.99;60.15;96475.26;585691;240;69040;-65
2023/07/20 07:36:41;;;;;;;;;;;;;;;26.00;60.33;96478.73;585196;240;68800;-64
2023/07/20 07:39:10;;;;;;;;;;;;;;;26.00;60.49;96482.25;585728;240;62939;-61
2023/07/20 07:41:38;;;;;;;;;;;;;;;26.02;60.80;96482.70;585971;240;68812;-59
2023/07/20 07:44:06;;;;;;;;;;;;;;;26.01;60.90;96483.03;577856;241;68616;-59
2023/07/20 07:46:33;;;;;;;;;;;;;;;26.02;60.80;96493.47;576316;246;62943;-62
2023/07/20 07:49:01;;;;;;;;;;;;;;;26.03;60.99;96499.67;576309;246;66736;-61
2023/07/20 07:51:28;;;;;;;;;;;;;;;26.04;61.46;96502.03;576243;246;66839;-63
2023/07/20 07:53:56;;;;;;;;;;;;;;;26.07;61.48;96500.61;576315;246;62883;-61
2023/07/20 07:56:23;;;;;;;;;;;;;;;26.08;61.30;96503.00;576313;246;66586;-62
2023/07/20 07:58:54;;;;;;;;;;;;;;;26.08;61.31;96507.56;576235;243;68735;-63
2023/07/20 08:01:22;;;;;;;;;;;;;;;26.12;60.71;96503.15;576284;246;63917;-62
2023/07/20 08:03:49;;;;;;;;;;;;;;;26.13;60.14;96510.11;576227;246;66744;-62
2023/07/20 08:06:19;;;;;;;;;;;;;;;26.13;60.01;96510.11;576248;246;66710;-63
2023/07/20 08:08:46;;;;;;;;;;;;;;;26.12;59.79;96513.92;576283;246;62944;-62
2023/07/20 08:11:14;;;;;;;;;;;;;;;26.12;59.38;96513.92;576246;246;66608;-62
2023/07/20 08:13:41;;;;;;;;;;;;;;;26.11;59.19;96513.13;576323;246;66461;-63
2023/07/20 08:16:09;;;;;;;;;;;;;;;26.12;58.05;96516.61;576328;246;65107;-63
2023/07/20 08:18:36;;;;;;;;;;;;;;;26.11;58.37;96526.59;576298;246;68946;-62
2023/07/20 08:21:04;;;;;;;;;;;;;;;26.13;57.98;96532.44;576246;246;66897;-61
2023/07/20 08:23:31;;;;;;;;;;;;;;;26.13;58.09;96532.44;570777;244;63001;-62
2023/07/20 08:25:58;;;;;;;;;;;;;;;26.15;57.95;96544.81;569973;246;68797;-62
2023/07/20 08:28:26;;;;;;;;;;;;;;;26.12;58.46;96538.95;569803;247;68707;-62
2023/07/20 08:30:54;;;;;;;;;;;;;;;26.12;57.88;96551.62;569853;246;65010;-59
2023/07/20 08:33:23;;;;;;;;;;;;;;;26.11;58.04;96545.45;570180;244;66626;-63
2023/07/20 08:35:51;;;;;;;;;;;;;;;26.11;58.46;96558.91;569989;244;68609;-65
2023/07/20 08:38:19;;;;;;;;;;;;;;;26.12;58.51;96559.70;570267;245;65227;-66
2023/07/20 08:40:47;;;;;;;;;;;;;;;26.13;58.55;96572.05;571484;244;68480;-65
2023/07/20 08:43:18;;;;;;;;;;;;;;;26.13;58.72;96580.13;570080;246;68528;-66
2023/07/20 08:45:46;;;;;;;;;;;;;;;26.13;59.12;96601.67;569852;246;65124;-66
2023/07/20 08:48:14;;;;;;;;;;;;;;;26.15;58.92;96625.61;569825;246;69054;-65
2023/07/20 08:50:42;;;;;;;;;;;;;;;26.14;57.70;96619.44;569967;246;68753;-64
2023/07/20 08:53:10;;;;;;;;;;;;;;;26.13;56.48;96612.44;570360;245;65071;-64
2023/07/20 08:55:38;;;;;;;;;;;;;;;26.13;56.73;96607.05;569906;246;66602;-64
2023/07/20 08:58:08;;;;;;;;;;;;;;;26.14;56.18;96616.73;570168;245;66619;-62
2023/07/20 09:00:36;;;;;;;;;;;;;;;26.11;56.97;96631.63;570090;246;65095;-64
2023/07/20 09:03:04;;;;;;;;;;;;;;;26.13;56.83;96628.60;570038;246;68839;-63
2023/07/20 09:05:32;;;;;;;;;;;;;;;26.13;57.44;96623.22;568157;245;66672;-61
2023/07/20 09:07:59;;;;;;;;;;;;;;;26.13;57.37;96607.84;570013;246;65113;-61
2023/07/20 09:10:27;;;;;;;;;;;;;;;26.14;57.28;96587.11;579448;243;66650;-61
2023/07/20 09:12:57;;;;;;;;;;;;;;;26.15;57.08;96583.30;580345;244;68753;-61
2023/07/20 09:15:26;;;;;;;;;;;;;;;26.14;56.89;96608.66;580286;244;65202;-62
2023/07/20 09:17:54;;;;;;;;;;;;;;;26.15;56.92;96610.23;580421;244;68799;-63
2023/07/20 09:23:43;;;;;;;;;;;;;;;26.12;56.03;96616.25;581299;244;39860;-62
2023/07/20 09:26:15;;;;;;;;;;;;;;;26.11;56.32;96614.68;581066;244;68842;-63
2023/07/20 09:28:47;;;;;;;;;;;;;;;26.12;56.19;96608.96;581349;243;68595;-62
2023/07/20 09:31:18;;;;;;;;;;;;;;;26.11;57.25;96606.59;581129;244;62928;-62
2023/07/20 09:33:47;;;;;;;;;;;;;;;26.11;56.23;96587.75;581406;244;68842;-61
2023/07/20 09:36:15;;;;;;;;;;;;;;;26.10;54.65;96603.09;581243;243;69124;-63
2023/07/20 09:38:43;;;;;;;;;;;;;;;26.10;54.25;96591.53;581432;244;65052;-62
2023/07/20 09:41:18;;;;;;;;;;;;;;;26.11;55.17;96579.67;581461;244;68860;-62
2023/07/20 09:43:46;;;;;;;;;;;;;;;26.09;56.77;96587.27;581414;244;66753;-63
2023/07/20 09:46:14;;;;;;;;;;;;;;;26.09;55.83;96584.57;581437;243;62975;-60
2023/07/20 09:48:42;;;;;;;;;;;;;;;26.10;55.86;96580.76;581268;244;68834;-61
2023/07/20 09:51:10;;;;;;;;;;;;;;;26.10;56.50;96581.55;581442;244;68754;-62
2023/07/20 09:53:38;;;;;;;;;;;;;;;26.10;56.49;96583.45;581341;244;65252;-64
2023/07/20 09:56:06;;;;;;;;;;;;;;;26.10;57.28;96580.76;580746;244;68531;-63
2023/07/20 09:58:34;;;;;;;;;;;;;;;26.13;57.32;96575.53;581396;243;68700;-62
2023/07/20 10:01:04;;;;;;;;;;;;;;;26.13;56.58;96577.43;580892;244;63035;-62
2023/07/20 10:03:32;;;;;;;;;;;;;;;26.12;56.68;96573.16;581306;244;69169;-63
2023/07/20 10:06:01;;;;;;;;;;;;;;;26.11;57.27;96563.52;581403;244;68720;-62
2023/07/20 10:08:30;;;;;;;;;;;;;;;26.12;57.70;96562.39;581267;244;65095;-62
2023/07/20 10:11:00;;;;;;;;;;;;;;;26.10;58.18;96553.83;581442;244;68784;-62
2023/07/20 10:13:28;;;;;;;;;;;;;;;26.09;57.60;96549.56;571713;244;66592;-61
2023/07/20 10:15:57;;;;;;;;;;;;;;;26.10;57.42;96553.83;569423;247;63017;-62
2023/07/20 10:18:44;;;;;;;;;;;;;;;26.10;57.62;96556.52;569455;246;68545;-62
2023/07/20 10:21:11;;;;;;;;;;;;;;;26.09;57.26;96547.66;569339;247;68368;-62
2023/07/20 10:23:39;;;;;;;;;;;;;;;26.11;58.66;96550.83;577439;244;63079;-62
2023/07/20 10:26:08;;;;;;;;;;;;;;;26.10;57.81;96559.22;580356;243;66251;-62
2023/07/20 10:28:36;;;;;;;;;;;;;;;26.10;60.20;96559.22;580352;243;68520;-62
2023/07/20 10:31:03;;;;;;;;;;;;;;;26.08;58.78;96556.04;580365;244;66478;-62
2023/07/20 10:33:31;;;;;;;;;;;;;;;26.07;62.37;96555.25;580408;244;69173;-61
2023/07/20 10:36:00;;;;;;;;;;;;;;;26.06;61.94;96556.37;580397;243;68508;-62
2023/07/20 10:38:42;;;;;;;;;;;;;;;26.07;60.59;96543.69;580257;243;65058;-62
2023/07/20 10:41:26;;;;;;;;;;;;;;;26.08;57.11;96540.70;580375;243;66358;-62
2023/07/20 10:43:55;;;;;;;;;;;;;;;26.10;56.87;96535.77;580346;244;68502;-63
2023/07/20 10:46:36;;;;;;;;;;;;;;;26.10;57.18;96526.91;580333;242;62939;-63
2023/07/20 10:49:04;;;;;;;;;;;;;;;26.11;57.53;96531.20;580353;243;66414;-61
2023/07/20 10:51:33;;;;;;;;;;;;;;;26.10;58.15;96524.20;580294;243;66787;-62
2023/07/20 10:54:02;;;;;;;;;;;;;;;26.09;57.57;96519.94;580221;243;65080;-62
2023/07/20 10:56:30;;;;;;;;;;;;;;;26.10;57.62;96516.91;580363;244;68832;-63
2023/07/20 10:58:58;;;;;;;;;;;;;;;26.10;57.14;96503.45;580323;243;68686;-63
2023/07/20 11:01:32;;;;;;;;;;;;;;;26.10;56.92;96499.97;580405;243;63018;-62
2023/07/20 11:04:03;;;;;;;;;;;;;;;26.10;57.41;96506.14;580348;243;68746;-62
2023/07/20 11:06:32;;;;;;;;;;;;;;;26.11;57.51;96501.58;580320;244;70913;-61
2023/07/20 11:09:16;;;;;;;;;;;;;;;26.11;57.51;96506.96;580372;244;65001;-62
2023/07/20 11:11:44;;;;;;;;;;;;;;;26.11;57.45;96506.96;580351;244;68296;-64
2023/07/20 11:14:14;;;;;;;;;;;;;;;26.10;57.44;96505.36;580546;243;66540;-62
2023/07/20 11:16:43;;;;;;;;;;;;;;;26.12;57.01;96501.24;579964;244;63690;-64
2023/07/20 11:19:26;;;;;;;;;;;;;;;26.13;57.08;96497.43;580329;244;69103;-64
2023/07/20 11:21:55;;;;;;;;;;;;;;;26.15;57.20;96493.64;580340;243;66596;-63
2023/07/20 11:24:22;;;;;;;;;;;;;;;26.16;57.22;96490.62;580445;243;63838;-65
2023/07/20 11:26:51;;;;;;;;;;;;;;;26.15;56.80;96480.97;580330;244;68849;-63
2023/07/20 11:29:19;;;;;;;;;;;;;;;26.15;56.52;96472.89;580414;244;66615;-64
2023/07/20 11:31:47;;;;;;;;;;;;;;;26.15;55.93;96456.73;580325;244;63129;-64
2023/07/20 11:34:16;;;;;;;;;;;;;;;26.15;55.85;96443.27;580415;243;68954;-64
2023/07/20 11:36:47;;;;;;;;;;;;;;;26.15;56.56;96437.88;580322;243;68734;-64
2023/07/20 11:39:16;;;;;;;;;;;;;;;26.17;56.48;96418.72;580323;243;62701;-63
2023/07/20 11:41:49;;;;;;;;;;;;;;;26.19;56.13;96428.06;580357;243;66633;-63
2023/07/20 11:44:26;;;;;;;;;;;;;;;26.20;57.04;96428.85;580300;243;66635;-63
2023/07/20 11:46:50;;;;;;;;;;;;;;;26.21;56.55;96416.95;580290;243;65135;-64
2023/07/20 11:49:18;;;;;;;;;;;;;;;26.19;56.23;96406.52;580377;243;68940;-63
2023/07/20 11:51:45;;;;;;;;;;;;;;;26.20;55.80;96401.92;579989;244;68650;-64
2023/07/20 11:54:14;;;;;;;;;;;;;;;26.18;55.89;96383.38;579786;243;62796;-64
2023/07/20 11:56:42;;;;;;;;;;;;;;;26.18;55.87;96383.38;575806;243;66797;-63
2023/07/20 11:59:10;;;;;;;;;;;;;;;26.20;56.48;96386.55;578644;244;68422;-63
2023/07/20 12:01:37;;;;;;;;;;;;;;;26.20;56.58;96383.86;578048;241;65155;-63
2023/07/20 12:04:06;;;;;;;;;;;;;;;26.21;56.89;96373.87;580023;244;68831;-63
2023/07/20 12:06:34;;;;;;;;;;;;;;;26.20;57.58;96373.08;581082;243;66989;-64
2023/07/20 12:09:02;;;;;;;;;;;;;;;26.19;56.93;96376.90;581145;243;63839;-62
2023/07/20 12:11:37;;;;;;;;;;;;;;;26.20;56.61;96370.39;581242;244;68943;-62
2023/07/20 12:14:06;;;;;;;;;;;;;;;26.20;56.84;96373.08;581247;241;68710;-62
2023/07/20 12:16:38;;;;;;;;;;;;;;;26.20;57.04;96366.91;581281;243;44902;-62
2023/07/20 12:19:06;;;;;;;;;;;;;;;26.22;57.00;96356.59;581300;243;68995;-63
2023/07/20 12:21:36;;;;;;;;;;;;;;;26.24;57.08;96357.85;580859;243;68735;-63
2023/07/20 12:24:04;;;;;;;;;;;;;;;26.25;56.65;96348.67;581402;240;65067;-62
2023/07/20 12:26:33;;;;;;;;;;;;;;;26.27;56.57;96354.54;581493;243;68519;-62
2023/07/20 12:29:01;;;;;;;;;;;;;;;26.27;56.30;96346.46;581475;243;68754;-62
2023/07/20 12:31:29;;;;;;;;;;;;;;;26.27;56.24;96343.77;581543;243;65128;-63
2023/07/20 12:33:58;;;;;;;;;;;;;;;26.27;56.80;96332.99;581473;243;69113;-62
2023/07/20 12:36:26;;;;;;;;;;;;;;;26.27;57.55;96332.99;574894;243;68014;-62
2023/07/20 12:38:53;;;;;;;;;;;;;;;26.28;56.89;96323.79;575054;246;63052;-62
2023/07/20 12:41:20;;;;;;;;;;;;;;;26.28;56.94;96317.62;574981;246;68794;-62
2023/07/20 12:43:49;;;;;;;;;;;;;;;26.29;56.92;96319.97;575163;246;68747;-62
2023/07/20 12:46:17;;;;;;;;;;;;;;;26.30;57.01;96321.57;575096;246;62921;-61
2023/07/20 12:48:44;;;;;;;;;;;;;;;26.30;56.83;96310.80;575068;246;68712;-63
2023/07/20 12:51:12;;;;;;;;;;;;;;;26.31;57.14;96312.36;575069;246;66611;-62
2023/07/20 12:53:40;;;;;;;;;;;;;;;26.32;57.31;96313.94;575012;246;65073;-61
2023/07/20 12:56:07;;;;;;;;;;;;;;;26.35;57.33;96307.11;575022;246;68607;-62